createdAt,value
2023-05-03T00:04:54.741Z,20.60
2023-05-03T00:10:00.176Z,21.20
2023-05-03T00:15:05.225Z,20.00
2023-05-03T00:20:10.128Z,20.60
2023-05-03T00:25:15.599Z,19.10
2023-05-03T00:30:19.995Z,19.20
2023-05-03T00:35:24.346Z,18.80
2023-05-03T00:40:28.900Z,18.50
2023-05-03T00:45:34.691Z,18.30
2023-05-03T00:50:39.987Z,18.10
2023-05-03T00:55:45.895Z,19.00
2023-05-03T01:00:50.037Z,17.00
2023-05-03T01:06:14.268Z,17.60
2023-05-03T01:11:26.956Z,16.80
2023-05-03T01:16:41.551Z,16.10
2023-05-03T01:21:53.205Z,16.30
2023-05-03T01:26:58.404Z,16.50
2023-05-03T01:32:06.394Z,15.90
2023-05-03T01:37:13.182Z,16.00
2023-05-03T01:42:18.086Z,15.10
2023-05-03T01:47:23.842Z,13.50
2023-05-03T01:52:28.367Z,13.60
2023-05-03T01:57:32.932Z,13.90
2023-05-03T02:02:37.028Z,13.50
2023-05-03T02:07:41.401Z,12.10
2023-05-03T02:12:46.081Z,11.40
2023-05-03T02:17:51.574Z,12.00
2023-05-03T02:22:55.649Z,11.40
2023-05-03T02:28:00.145Z,11.40
2023-05-03T02:33:04.589Z,11.40
2023-05-03T02:38:09.092Z,10.80
2023-05-03T02:43:14.026Z,11.20
2023-05-03T02:48:18.777Z,10.90
2023-05-03T02:53:23.425Z,11.40
2023-05-03T02:58:29.301Z,10.30
2023-05-03T03:03:34.294Z,10.40
2023-05-03T03:08:38.703Z,9.70
2023-05-03T03:13:43.644Z,10.00
2023-05-03T03:18:48.312Z,9.90
2023-05-03T03:23:52.843Z,9.30
2023-05-03T03:28:57.388Z,9.60
2023-05-03T03:34:01.720Z,9.40
2023-05-03T03:39:07.089Z,9.00
2023-05-03T03:44:11.743Z,8.70
2023-05-03T03:49:16.177Z,8.50
2023-05-03T03:54:20.528Z,8.70
2023-05-03T03:59:25.593Z,8.50
2023-05-03T04:04:32.154Z,8.20
2023-05-03T04:09:36.830Z,8.70
2023-05-03T04:14:41.296Z,8.20
2023-05-03T04:19:46.316Z,7.50
2023-05-03T04:24:51.070Z,7.80
2023-05-03T04:29:55.400Z,8.10
2023-05-03T04:35:01.990Z,7.80
2023-05-03T04:40:10.153Z,7.80
2023-05-03T04:45:16.091Z,7.90
2023-05-03T04:50:21.060Z,7.40
2023-05-03T04:55:27.024Z,7.30
2023-05-03T05:00:32.092Z,6.80
2023-05-03T05:05:41.432Z,7.70
2023-05-03T05:10:47.420Z,7.00
2023-05-03T05:15:53.920Z,7.10
2023-05-03T05:21:07.660Z,7.20
2023-05-03T05:26:12.757Z,7.00
2023-05-03T05:31:18.191Z,7.10
2023-05-03T05:36:23.537Z,6.80
2023-05-03T05:41:28.190Z,7.00
2023-05-03T05:46:32.583Z,6.10
2023-05-03T05:51:37.487Z,6.10
2023-05-03T05:56:42.023Z,5.90
2023-05-03T06:01:46.923Z,6.00
2023-05-03T06:06:54.868Z,6.10
2023-05-03T06:11:59.238Z,6.10
2023-05-03T06:17:06.453Z,5.60
2023-05-03T06:22:10.495Z,5.70
2023-05-03T06:27:15.016Z,5.20
2023-05-03T06:32:19.757Z,5.80
2023-05-03T06:37:23.907Z,5.00
2023-05-03T06:42:28.565Z,5.70
2023-05-03T06:47:43.570Z,5.70
2023-05-03T06:52:48.187Z,5.40
2023-05-03T06:57:53.546Z,5.40
2023-05-03T07:02:57.771Z,5.60
2023-05-03T07:08:04.188Z,5.30
2023-05-03T07:13:10.054Z,5.40
2023-05-03T07:18:14.437Z,5.40
2023-05-03T07:23:18.926Z,5.20
2023-05-03T07:28:23.833Z,4.80
2023-05-03T07:33:28.018Z,4.40
2023-05-03T07:38:34.630Z,4.90
2023-05-03T07:43:39.034Z,4.50
2023-05-03T07:48:44.306Z,15.00
2023-05-03T07:53:48.370Z,42.20
2023-05-03T07:59:04.557Z,58.80
2023-05-03T08:04:13.462Z,64.90
2023-05-03T08:09:19.519Z,71.70
2023-05-03T08:14:24.339Z,56.20
2023-05-03T08:19:28.775Z,50.70
2023-05-03T08:24:35.569Z,46.00
2023-05-03T08:29:40.526Z,47.10
2023-05-03T08:34:44.756Z,42.40
2023-05-03T08:39:49.604Z,41.70
2023-05-03T08:44:55.296Z,42.30
2023-05-03T08:50:00.279Z,39.90
2023-05-03T08:55:09.148Z,37.60
2023-05-03T09:00:14.669Z,39.60
2023-05-03T09:05:19.705Z,39.10
2023-05-03T09:10:27.421Z,35.60
2023-05-03T09:15:33.189Z,34.40
2023-05-03T09:20:40.285Z,31.50
2023-05-03T09:25:54.553Z,33.50
2023-05-03T09:31:07.813Z,31.10
2023-05-03T09:36:12.063Z,31.60
2023-05-03T09:41:17.324Z,28.10
2023-05-03T09:46:21.947Z,28.90
2023-05-03T09:51:27.796Z,27.10
2023-05-03T09:56:32.553Z,29.00
2023-05-03T10:01:37.072Z,27.40
2023-05-03T10:06:45.156Z,27.60
2023-05-03T10:11:53.645Z,26.10
2023-05-03T10:17:04.955Z,24.90
2023-05-03T10:22:11.643Z,25.40
2023-05-03T10:27:17.731Z,25.00
2023-05-03T10:32:30.553Z,23.80
2023-05-03T10:37:38.856Z,23.30
2023-05-03T10:42:56.616Z,22.00
2023-05-03T10:48:12.947Z,20.40
2023-05-03T10:53:37.956Z,20.30
2023-05-03T10:58:47.431Z,20.80
2023-05-03T11:04:11.848Z,21.70
2023-05-03T11:09:18.219Z,18.80
2023-05-03T11:14:22.440Z,17.50
2023-05-03T11:19:52.198Z,17.50
2023-05-03T11:24:57.492Z,15.50
2023-05-03T11:30:01.643Z,16.00
2023-05-03T11:35:09.794Z,13.70
2023-05-03T11:40:17.736Z,13.70
2023-05-03T11:45:30.324Z,13.90
2023-05-03T11:50:54.722Z,12.80
2023-05-03T11:55:58.758Z,12.80
2023-05-03T12:01:04.229Z,12.60
2023-05-03T12:06:09.971Z,11.70
2023-05-03T12:11:15.302Z,12.50
2023-05-03T12:16:23.316Z,12.00
2023-05-03T12:26:57.578Z,11.60
2023-05-03T12:32:04.340Z,11.20
2023-05-03T12:37:11.770Z,11.60
2023-05-03T12:42:16.443Z,10.50
2023-05-03T12:47:27.925Z,10.50
2023-05-03T12:52:37.822Z,10.60
2023-05-03T12:57:45.753Z,9.90
2023-05-03T13:08:00.732Z,9.80
2023-05-03T13:13:11.720Z,9.90
2023-05-03T13:18:16.833Z,9.70
2023-05-03T13:23:21.314Z,8.40
2023-05-03T13:28:25.455Z,8.50
2023-05-03T13:33:30.000Z,8.50
2023-05-03T13:38:34.426Z,9.10
2023-05-03T13:43:38.355Z,8.90
2023-05-03T13:48:43.378Z,8.00
2023-05-03T13:53:48.077Z,8.10
2023-05-03T13:58:52.453Z,8.00
2023-05-03T14:03:56.789Z,7.70
2023-05-03T14:09:02.425Z,8.70
2023-05-03T14:14:07.350Z,12.30
2023-05-03T14:19:12.348Z,11.20
2023-05-03T14:24:17.482Z,11.20
2023-05-03T14:29:23.464Z,10.70
2023-05-03T14:34:29.446Z,11.00
2023-05-03T14:39:33.988Z,49.10
2023-05-03T14:44:38.259Z,107.60
2023-05-03T14:49:42.461Z,104.70
2023-05-03T14:54:47.448Z,169.10
2023-05-03T14:59:52.924Z,96.10
2023-05-03T15:04:57.331Z,89.30
2023-05-03T15:10:06.670Z,73.50
2023-05-03T15:15:12.602Z,61.80
2023-05-03T15:20:17.203Z,59.10
2023-05-03T15:25:21.643Z,58.20
2023-05-03T15:30:26.212Z,51.10
2023-05-03T15:35:31.588Z,49.00
2023-05-03T15:40:36.527Z,46.30
2023-05-03T15:45:40.638Z,46.90
2023-05-03T15:50:45.516Z,46.90
2023-05-03T15:55:50.356Z,43.80
2023-05-03T16:00:56.118Z,41.30
2023-05-03T16:06:02.110Z,28.90
2023-05-03T16:11:08.521Z,26.60
2023-05-03T16:16:13.926Z,27.40
2023-05-03T16:21:18.700Z,22.80
2023-05-03T16:26:23.143Z,22.30
2023-05-03T16:31:30.597Z,17.70
2023-05-03T16:36:43.822Z,18.70
2023-05-03T16:41:51.053Z,16.30
2023-05-03T16:46:55.949Z,16.60
2023-05-03T16:52:00.189Z,17.30
2023-05-03T16:57:05.217Z,17.40
2023-05-03T17:02:09.464Z,18.10
2023-05-03T17:07:16.149Z,18.20
2023-05-03T17:12:21.925Z,17.20
2023-05-03T17:17:26.413Z,18.20
2023-05-03T17:22:30.624Z,17.50
2023-05-03T17:27:34.964Z,16.50
2023-05-03T17:32:39.468Z,14.30
2023-05-03T17:37:46.298Z,14.90
2023-05-03T17:42:51.052Z,14.20
2023-05-03T17:47:55.692Z,14.00
2023-05-03T17:53:01.156Z,14.30
2023-05-03T17:58:06.876Z,13.60
2023-05-03T18:03:13.638Z,12.80
2023-05-03T18:08:19.851Z,12.70
2023-05-03T18:13:28.598Z,12.50
2023-05-03T18:18:32.769Z,12.30
2023-05-03T18:23:37.333Z,11.90
2023-05-03T18:28:43.574Z,11.00
2023-05-03T18:33:53.166Z,12.50
2023-05-03T18:38:58.705Z,10.40
2023-05-03T18:44:10.673Z,10.30
2023-05-03T18:49:19.753Z,10.40
2023-05-03T18:54:24.956Z,9.50
2023-05-03T18:59:32.684Z,9.10
2023-05-03T19:04:38.739Z,8.90
2023-05-03T19:09:44.548Z,167.80
2023-05-03T19:14:51.580Z,146.70
2023-05-03T19:19:56.169Z,115.70
2023-05-03T19:25:04.190Z,107.80
2023-05-03T19:30:12.185Z,92.50
2023-05-03T19:35:20.156Z,87.50
2023-05-03T19:40:26.677Z,86.90
2023-05-03T19:45:34.116Z,84.40
2023-05-03T19:50:39.992Z,82.10
2023-05-03T19:56:04.321Z,78.20
2023-05-03T20:01:09.581Z,78.60
2023-05-03T20:06:15.215Z,74.10
2023-05-03T20:11:20.882Z,72.20
2023-05-03T20:16:34.633Z,68.60
2023-05-03T20:21:39.234Z,69.90
2023-05-03T20:26:48.261Z,62.60
2023-05-03T20:31:54.079Z,47.60
2023-05-03T20:36:58.789Z,51.30
2023-05-03T20:42:04.172Z,67.60
2023-05-03T20:47:08.379Z,128.70
2023-05-03T20:52:13.331Z,125.80
2023-05-03T20:57:17.473Z,119.60
2023-05-03T21:02:23.096Z,100.00
2023-05-03T21:07:29.328Z,103.30
2023-05-03T21:12:33.829Z,98.70
2023-05-03T21:17:38.576Z,90.50
2023-05-03T21:22:43.101Z,87.20
2023-05-03T21:27:47.930Z,88.20
2023-05-03T21:32:54.755Z,83.10
2023-05-03T21:38:00.441Z,83.50
2023-05-03T21:43:06.559Z,84.00
2023-05-03T21:48:11.329Z,82.60
2023-05-03T21:53:17.191Z,81.00
2023-05-03T21:58:21.924Z,81.90
2023-05-03T22:03:27.007Z,79.40
2023-05-03T22:08:31.642Z,75.80
2023-05-03T22:13:50.284Z,73.70
2023-05-03T22:19:02.814Z,72.90
2023-05-03T22:24:09.514Z,71.40
2023-05-03T22:29:14.091Z,72.70
2023-05-03T22:34:19.948Z,70.60
2023-05-03T22:39:25.405Z,71.40
2023-05-03T22:44:29.738Z,73.60
2023-05-03T22:49:33.881Z,70.80
2023-05-03T22:54:39.323Z,69.90
2023-05-03T22:59:47.570Z,66.40
2023-05-03T23:04:51.712Z,64.60
2023-05-03T23:10:04.304Z,65.90
2023-05-03T23:15:09.034Z,63.80
2023-05-03T23:20:13.750Z,61.10
2023-05-03T23:25:18.188Z,59.00
2023-05-03T23:30:22.839Z,59.60
2023-05-03T23:35:27.579Z,54.20
2023-05-03T23:40:32.448Z,56.00
2023-05-03T23:45:38.064Z,55.60
2023-05-03T23:50:42.638Z,53.50
2023-05-03T23:55:46.887Z,53.40
